sensor_id;sensor_type;location;lat;lon;timestamp;pressure;altitude;pressure_sealevel;temperature
20736;BMP180;10528;52.124;5.196;2022-12-16T00:02:06;100830.00;;;5.90
20736;BMP180;10528;52.124;5.196;2022-12-16T00:04:33;100845.00;;;5.90
20736;BMP180;10528;52.124;5.196;2022-12-16T00:07:00;100855.00;;;5.90
20736;BMP180;10528;52.124;5.196;2022-12-16T00:09:27;100864.00;;;5.80
20736;BMP180;10528;52.124;5.196;2022-12-16T00:11:53;100858.00;;;5.80
20736;BMP180;10528;52.124;5.196;2022-12-16T00:14:20;100860.00;;;5.80
20736;BMP180;10528;52.124;5.196;2022-12-16T00:16:47;100856.00;;;5.70
20736;BMP180;10528;52.124;5.196;2022-12-16T00:19:14;100849.00;;;5.70
20736;BMP180;10528;52.124;5.196;2022-12-16T00:21:41;100844.00;;;5.70
20736;BMP180;10528;52.124;5.196;2022-12-16T00:24:08;100854.00;;;5.70
20736;BMP180;10528;52.124;5.196;2022-12-16T00:26:34;100853.00;;;5.60
20736;BMP180;10528;52.124;5.196;2022-12-16T00:29:01;100846.00;;;5.60
20736;BMP180;10528;52.124;5.196;2022-12-16T00:31:31;100850.00;;;5.60
20736;BMP180;10528;52.124;5.196;2022-12-16T00:33:58;100848.00;;;5.50
20736;BMP180;10528;52.124;5.196;2022-12-16T00:36:25;100853.00;;;5.50
20736;BMP180;10528;52.124;5.196;2022-12-16T00:38:52;100848.00;;;5.50
20736;BMP180;10528;52.124;5.196;2022-12-16T00:41:19;100845.00;;;5.50
20736;BMP180;10528;52.124;5.196;2022-12-16T00:43:46;100852.00;;;5.40
20736;BMP180;10528;52.124;5.196;2022-12-16T00:46:13;100860.00;;;5.40
20736;BMP180;10528;52.124;5.196;2022-12-16T00:48:40;100856.00;;;5.40
20736;BMP180;10528;52.124;5.196;2022-12-16T00:51:07;100864.00;;;5.40
20736;BMP180;10528;52.124;5.196;2022-12-16T00:53:34;100866.00;;;5.40
20736;BMP180;10528;52.124;5.196;2022-12-16T00:56:07;100866.00;;;5.30
20736;BMP180;10528;52.124;5.196;2022-12-16T00:58:35;100875.00;;;5.30
20736;BMP180;10528;52.124;5.196;2022-12-16T01:01:04;100867.00;;;5.30
20736;BMP180;10528;52.124;5.196;2022-12-16T01:03:31;100875.00;;;5.30
20736;BMP180;10528;52.124;5.196;2022-12-16T01:05:59;100878.00;;;5.30
20736;BMP180;10528;52.124;5.196;2022-12-16T01:08:25;100886.00;;;5.20
20736;BMP180;10528;52.124;5.196;2022-12-16T01:10:56;100891.00;;;5.30
20736;BMP180;10528;52.124;5.196;2022-12-16T01:13:24;100888.00;;;5.20
20736;BMP180;10528;52.124;5.196;2022-12-16T01:15:52;100894.00;;;5.20
20736;BMP180;10528;52.124;5.196;2022-12-16T01:18:19;100895.00;;;5.20
20736;BMP180;10528;52.124;5.196;2022-12-16T01:20:45;100888.00;;;5.20
20736;BMP180;10528;52.124;5.196;2022-12-16T01:23:12;100896.00;;;5.20
20736;BMP180;10528;52.124;5.196;2022-12-16T01:25:39;100901.00;;;5.20
20736;BMP180;10528;52.124;5.196;2022-12-16T01:28:06;100900.00;;;5.30
20736;BMP180;10528;52.124;5.196;2022-12-16T01:30:34;100904.00;;;5.30
20736;BMP180;10528;52.124;5.196;2022-12-16T01:33:00;100909.00;;;5.30
20736;BMP180;10528;52.124;5.196;2022-12-16T01:35:27;100919.00;;;5.40
20736;BMP180;10528;52.124;5.196;2022-12-16T01:38:14;100925.00;;;5.40
20736;BMP180;10528;52.124;5.196;2022-12-16T01:40:41;100924.00;;;5.40
20736;BMP180;10528;52.124;5.196;2022-12-16T01:43:12;100923.00;;;5.50
20736;BMP180;10528;52.124;5.196;2022-12-16T01:45:40;100915.00;;;5.50
20736;BMP180;10528;52.124;5.196;2022-12-16T01:51:01;100944.00;;;5.60
20736;BMP180;10528;52.124;5.196;2022-12-16T01:53:30;100934.00;;;5.60
20736;BMP180;10528;52.124;5.196;2022-12-16T01:56:00;100936.00;;;5.60
20736;BMP180;10528;52.124;5.196;2022-12-16T01:58:32;100935.00;;;5.70
20736;BMP180;10528;52.124;5.196;2022-12-16T02:01:00;100929.00;;;5.70
20736;BMP180;10528;52.124;5.196;2022-12-16T02:03:34;100946.00;;;5.70
20736;BMP180;10528;52.124;5.196;2022-12-16T02:06:05;100947.00;;;5.80
20736;BMP180;10528;52.124;5.196;2022-12-16T02:08:33;100945.00;;;5.80
20736;BMP180;10528;52.124;5.196;2022-12-16T02:11:27;100938.00;;;5.80
20736;BMP180;10528;52.124;5.196;2022-12-16T02:20:00;100953.00;;;5.90
20736;BMP180;10528;52.124;5.196;2022-12-16T02:35:24;100960.00;;;6.00
20736;BMP180;10528;52.124;5.196;2022-12-16T02:38:34;100974.00;;;6.10
20736;BMP180;10528;52.124;5.196;2022-12-16T02:41:12;100969.00;;;6.10
20736;BMP180;10528;52.124;5.196;2022-12-16T02:46:24;100975.00;;;6.20
20736;BMP180;10528;52.124;5.196;2022-12-16T02:48:53;100976.00;;;6.20
20736;BMP180;10528;52.124;5.196;2022-12-16T02:51:23;100975.00;;;6.30
20736;BMP180;10528;52.124;5.196;2022-12-16T02:53:53;100985.00;;;6.30
20736;BMP180;10528;52.124;5.196;2022-12-16T03:02:29;100982.00;;;6.20
20736;BMP180;10528;52.124;5.196;2022-12-16T03:05:30;100988.00;;;6.20
20736;BMP180;10528;52.124;5.196;2022-12-16T03:08:04;100994.00;;;6.30
20736;BMP180;10528;52.124;5.196;2022-12-16T03:10:44;101007.00;;;6.30
20736;BMP180;10528;52.124;5.196;2022-12-16T03:13:16;101015.00;;;6.30
20736;BMP180;10528;52.124;5.196;2022-12-16T03:15:48;101017.00;;;6.30
20736;BMP180;10528;52.124;5.196;2022-12-16T03:18:17;101007.00;;;6.30
20736;BMP180;10528;52.124;5.196;2022-12-16T03:21:21;101024.00;;;6.30
20736;BMP180;10528;52.124;5.196;2022-12-16T03:23:59;101029.00;;;6.30
20736;BMP180;10528;52.124;5.196;2022-12-16T03:26:38;101019.00;;;6.40
20736;BMP180;10528;52.124;5.196;2022-12-16T03:29:14;101016.00;;;6.40
20736;BMP180;10528;52.124;5.196;2022-12-16T03:31:50;101030.00;;;6.40
20736;BMP180;10528;52.124;5.196;2022-12-16T03:37:13;101038.00;;;6.50
20736;BMP180;10528;52.124;5.196;2022-12-16T03:39:48;101042.00;;;6.50
20736;BMP180;10528;52.124;5.196;2022-12-16T03:42:17;101043.00;;;6.50
20736;BMP180;10528;52.124;5.196;2022-12-16T03:44:45;101051.00;;;6.50
20736;BMP180;10528;52.124;5.196;2022-12-16T03:47:13;101055.00;;;6.50
20736;BMP180;10528;52.124;5.196;2022-12-16T03:49:47;101056.00;;;6.50
20736;BMP180;10528;52.124;5.196;2022-12-16T03:52:14;101058.00;;;6.60
20736;BMP180;10528;52.124;5.196;2022-12-16T03:54:41;101070.00;;;6.60
20736;BMP180;10528;52.124;5.196;2022-12-16T03:57:07;101060.00;;;6.60
20736;BMP180;10528;52.124;5.196;2022-12-16T03:59:41;101067.00;;;6.60
20736;BMP180;10528;52.124;5.196;2022-12-16T04:02:08;101072.00;;;6.60
20736;BMP180;10528;52.124;5.196;2022-12-16T04:04:35;101069.00;;;6.60
20736;BMP180;10528;52.124;5.196;2022-12-16T04:07:02;101070.00;;;6.60
20736;BMP180;10528;52.124;5.196;2022-12-16T04:09:48;101079.00;;;6.60
20736;BMP180;10528;52.124;5.196;2022-12-16T04:12:17;101085.00;;;6.60
20736;BMP180;10528;52.124;5.196;2022-12-16T04:15:05;101079.00;;;6.60
20736;BMP180;10528;52.124;5.196;2022-12-16T04:17:50;101082.00;;;6.60
20736;BMP180;10528;52.124;5.196;2022-12-16T04:20:46;101082.00;;;6.60
20736;BMP180;10528;52.124;5.196;2022-12-16T04:23:33;101073.00;;;6.60
20736;BMP180;10528;52.124;5.196;2022-12-16T04:26:20;101085.00;;;6.50
20736;BMP180;10528;52.124;5.196;2022-12-16T04:28:47;101086.00;;;6.50
20736;BMP180;10528;52.124;5.196;2022-12-16T04:31:14;101090.00;;;6.50
20736;BMP180;10528;52.124;5.196;2022-12-16T04:33:41;101101.00;;;6.50
20736;BMP180;10528;52.124;5.196;2022-12-16T04:36:26;101107.00;;;6.40
20736;BMP180;10528;52.124;5.196;2022-12-16T04:39:12;101101.00;;;6.40
20736;BMP180;10528;52.124;5.196;2022-12-16T04:41:57;101110.00;;;6.40
20736;BMP180;10528;52.124;5.196;2022-12-16T04:44:43;101127.00;;;6.30
20736;BMP180;10528;52.124;5.196;2022-12-16T04:47:28;101121.00;;;6.30
20736;BMP180;10528;52.124;5.196;2022-12-16T04:50:19;101128.00;;;6.20
20736;BMP180;10528;52.124;5.196;2022-12-16T04:53:04;101124.00;;;6.20
20736;BMP180;10528;52.124;5.196;2022-12-16T04:55:50;101107.00;;;6.10
20736;BMP180;10528;52.124;5.196;2022-12-16T04:58:35;101108.00;;;6.10
20736;BMP180;10528;52.124;5.196;2022-12-16T05:01:21;101112.00;;;6.00
20736;BMP180;10528;52.124;5.196;2022-12-16T05:04:06;101107.00;;;6.00
20736;BMP180;10528;52.124;5.196;2022-12-16T05:06:52;101110.00;;;5.90
20736;BMP180;10528;52.124;5.196;2022-12-16T05:09:37;101114.00;;;5.90
20736;BMP180;10528;52.124;5.196;2022-12-16T05:12:23;101106.00;;;5.80
20736;BMP180;10528;52.124;5.196;2022-12-16T05:15:09;101116.00;;;5.80
20736;BMP180;10528;52.124;5.196;2022-12-16T05:17:54;101121.00;;;5.70
20736;BMP180;10528;52.124;5.196;2022-12-16T05:20:40;101121.00;;;5.70
20736;BMP180;10528;52.124;5.196;2022-12-16T05:23:26;101121.00;;;5.60
20736;BMP180;10528;52.124;5.196;2022-12-16T05:26:11;101122.00;;;5.60
20736;BMP180;10528;52.124;5.196;2022-12-16T05:28:57;101128.00;;;5.50
20736;BMP180;10528;52.124;5.196;2022-12-16T05:31:42;101128.00;;;5.50
20736;BMP180;10528;52.124;5.196;2022-12-16T05:34:28;101132.00;;;5.50
20736;BMP180;10528;52.124;5.196;2022-12-16T05:37:13;101134.00;;;5.40
20736;BMP180;10528;52.124;5.196;2022-12-16T05:39:58;101139.00;;;5.40
20736;BMP180;10528;52.124;5.196;2022-12-16T05:42:47;101135.00;;;5.40
20736;BMP180;10528;52.124;5.196;2022-12-16T05:45:40;101148.00;;;5.30
20736;BMP180;10528;52.124;5.196;2022-12-16T05:48:25;101144.00;;;5.30
20736;BMP180;10528;52.124;5.196;2022-12-16T05:51:13;101148.00;;;5.20
20736;BMP180;10528;52.124;5.196;2022-12-16T05:53:58;101148.00;;;5.20
20736;BMP180;10528;52.124;5.196;2022-12-16T05:56:44;101152.00;;;5.20
20736;BMP180;10528;52.124;5.196;2022-12-16T05:59:29;101157.00;;;5.10
20736;BMP180;10528;52.124;5.196;2022-12-16T06:02:15;101160.00;;;5.10
20736;BMP180;10528;52.124;5.196;2022-12-16T06:05:00;101153.00;;;5.10
20736;BMP180;10528;52.124;5.196;2022-12-16T06:07:52;101166.00;;;5.00
20736;BMP180;10528;52.124;5.196;2022-12-16T06:10:48;101171.00;;;5.00
20736;BMP180;10528;52.124;5.196;2022-12-16T06:13:44;101175.00;;;5.00
20736;BMP180;10528;52.124;5.196;2022-12-16T06:16:30;101180.00;;;4.90
20736;BMP180;10528;52.124;5.196;2022-12-16T06:19:15;101177.00;;;4.90
20736;BMP180;10528;52.124;5.196;2022-12-16T06:22:01;101168.00;;;4.90
20736;BMP180;10528;52.124;5.196;2022-12-16T06:24:46;101173.00;;;4.80
20736;BMP180;10528;52.124;5.196;2022-12-16T06:27:32;101180.00;;;4.80
20736;BMP180;10528;52.124;5.196;2022-12-16T06:30:17;101179.00;;;4.80
20736;BMP180;10528;52.124;5.196;2022-12-16T06:33:03;101188.00;;;4.70
20736;BMP180;10528;52.124;5.196;2022-12-16T06:35:48;101189.00;;;4.70
20736;BMP180;10528;52.124;5.196;2022-12-16T06:38:34;101188.00;;;4.70
20736;BMP180;10528;52.124;5.196;2022-12-16T06:41:19;101196.00;;;4.60
20736;BMP180;10528;52.124;5.196;2022-12-16T06:44:04;101193.00;;;4.60
20736;BMP180;10528;52.124;5.196;2022-12-16T06:46:50;101203.00;;;4.60
20736;BMP180;10528;52.124;5.196;2022-12-16T06:49:35;101214.00;;;4.50
20736;BMP180;10528;52.124;5.196;2022-12-16T06:52:20;101215.00;;;4.50
20736;BMP180;10528;52.124;5.196;2022-12-16T06:55:06;101222.00;;;4.50
20736;BMP180;10528;52.124;5.196;2022-12-16T06:57:58;101221.00;;;4.40
20736;BMP180;10528;52.124;5.196;2022-12-16T07:00:45;101225.00;;;4.40
20736;BMP180;10528;52.124;5.196;2022-12-16T07:03:30;101223.00;;;4.40
20736;BMP180;10528;52.124;5.196;2022-12-16T07:06:16;101222.00;;;4.40
20736;BMP180;10528;52.124;5.196;2022-12-16T07:09:02;101227.00;;;4.40
20736;BMP180;10528;52.124;5.196;2022-12-16T07:11:48;101234.00;;;4.30
20736;BMP180;10528;52.124;5.196;2022-12-16T07:14:33;101227.00;;;4.30
20736;BMP180;10528;52.124;5.196;2022-12-16T07:17:19;101236.00;;;4.30
20736;BMP180;10528;52.124;5.196;2022-12-16T07:20:05;101236.00;;;4.30
20736;BMP180;10528;52.124;5.196;2022-12-16T07:22:50;101237.00;;;4.30
20736;BMP180;10528;52.124;5.196;2022-12-16T07:25:45;101248.00;;;4.20
20736;BMP180;10528;52.124;5.196;2022-12-16T07:28:30;101255.00;;;4.20
20736;BMP180;10528;52.124;5.196;2022-12-16T07:31:15;101247.00;;;4.20
20736;BMP180;10528;52.124;5.196;2022-12-16T07:34:01;101247.00;;;4.20
20736;BMP180;10528;52.124;5.196;2022-12-16T07:36:46;101255.00;;;4.20
20736;BMP180;10528;52.124;5.196;2022-12-16T07:39:32;101269.00;;;4.20
20736;BMP180;10528;52.124;5.196;2022-12-16T07:42:22;101268.00;;;4.20
20736;BMP180;10528;52.124;5.196;2022-12-16T07:45:09;101268.00;;;4.10
20736;BMP180;10528;52.124;5.196;2022-12-16T07:47:55;101268.00;;;4.10
20736;BMP180;10528;52.124;5.196;2022-12-16T07:50:41;101271.00;;;4.10
20736;BMP180;10528;52.124;5.196;2022-12-16T07:53:27;101281.00;;;4.10
20736;BMP180;10528;52.124;5.196;2022-12-16T07:56:12;101277.00;;;4.10
20736;BMP180;10528;52.124;5.196;2022-12-16T07:58:58;101283.00;;;4.10
20736;BMP180;10528;52.124;5.196;2022-12-16T08:01:43;101303.00;;;4.10
20736;BMP180;10528;52.124;5.196;2022-12-16T08:04:29;101307.00;;;4.10
20736;BMP180;10528;52.124;5.196;2022-12-16T08:07:14;101309.00;;;4.00
20736;BMP180;10528;52.124;5.196;2022-12-16T08:09:59;101314.00;;;4.00
20736;BMP180;10528;52.124;5.196;2022-12-16T08:12:45;101313.00;;;4.00
20736;BMP180;10528;52.124;5.196;2022-12-16T08:15:30;101323.00;;;4.00
20736;BMP180;10528;52.124;5.196;2022-12-16T08:18:16;101323.00;;;4.10
20736;BMP180;10528;52.124;5.196;2022-12-16T08:21:01;101321.00;;;4.10
20736;BMP180;10528;52.124;5.196;2022-12-16T08:23:47;101331.00;;;4.10
20736;BMP180;10528;52.124;5.196;2022-12-16T08:26:32;101338.00;;;4.10
20736;BMP180;10528;52.124;5.196;2022-12-16T08:29:18;101344.00;;;4.10
20736;BMP180;10528;52.124;5.196;2022-12-16T08:32:13;101342.00;;;4.10
20736;BMP180;10528;52.124;5.196;2022-12-16T08:34:59;101336.00;;;4.20
20736;BMP180;10528;52.124;5.196;2022-12-16T08:37:46;101342.00;;;4.20
20736;BMP180;10528;52.124;5.196;2022-12-16T08:40:41;101340.00;;;4.20
20736;BMP180;10528;52.124;5.196;2022-12-16T08:43:30;101333.00;;;4.20
20736;BMP180;10528;52.124;5.196;2022-12-16T08:46:17;101349.00;;;4.30
20736;BMP180;10528;52.124;5.196;2022-12-16T08:49:03;101347.00;;;4.30
20736;BMP180;10528;52.124;5.196;2022-12-16T08:51:49;101356.00;;;4.30
20736;BMP180;10528;52.124;5.196;2022-12-16T08:54:35;101352.00;;;4.40
20736;BMP180;10528;52.124;5.196;2022-12-16T08:57:20;101358.00;;;4.40
20736;BMP180;10528;52.124;5.196;2022-12-16T09:00:07;101377.00;;;4.50
20736;BMP180;10528;52.124;5.196;2022-12-16T09:03:00;101376.00;;;4.50
20736;BMP180;10528;52.124;5.196;2022-12-16T09:05:45;101381.00;;;4.60
20736;BMP180;10528;52.124;5.196;2022-12-16T09:08:31;101379.00;;;4.60
20736;BMP180;10528;52.124;5.196;2022-12-16T09:11:16;101372.00;;;4.60
20736;BMP180;10528;52.124;5.196;2022-12-16T09:14:02;101376.00;;;4.70
20736;BMP180;10528;52.124;5.196;2022-12-16T09:16:47;101390.00;;;4.70
20736;BMP180;10528;52.124;5.196;2022-12-16T09:19:34;101390.00;;;4.80
20736;BMP180;10528;52.124;5.196;2022-12-16T09:22:21;101393.00;;;4.80
20736;BMP180;10528;52.124;5.196;2022-12-16T09:25:06;101388.00;;;4.90
20736;BMP180;10528;52.124;5.196;2022-12-16T09:27:52;101387.00;;;4.90
20736;BMP180;10528;52.124;5.196;2022-12-16T09:30:37;101393.00;;;5.00
20736;BMP180;10528;52.124;5.196;2022-12-16T09:33:23;101393.00;;;5.10
20736;BMP180;10528;52.124;5.196;2022-12-16T09:36:08;101392.00;;;5.20
20736;BMP180;10528;52.124;5.196;2022-12-16T09:38:54;101408.00;;;5.30
20736;BMP180;10528;52.124;5.196;2022-12-16T09:41:50;101403.00;;;5.30
20736;BMP180;10528;52.124;5.196;2022-12-16T09:45:06;101410.00;;;5.40
20736;BMP180;10528;52.124;5.196;2022-12-16T09:48:33;101417.00;;;5.50
20736;BMP180;10528;52.124;5.196;2022-12-16T09:51:23;101416.00;;;5.50
20736;BMP180;10528;52.124;5.196;2022-12-16T09:54:15;101428.00;;;5.60
20736;BMP180;10528;52.124;5.196;2022-12-16T09:57:04;101435.00;;;5.70
20736;BMP180;10528;52.124;5.196;2022-12-16T10:00:00;101439.00;;;5.70
20736;BMP180;10528;52.124;5.196;2022-12-16T10:02:48;101441.00;;;5.80
20736;BMP180;10528;52.124;5.196;2022-12-16T10:06:05;101450.00;;;5.90
20736;BMP180;10528;52.124;5.196;2022-12-16T10:15:45;101449.00;;;6.10
20736;BMP180;10528;52.124;5.196;2022-12-16T10:25:27;101456.00;;;6.40
20736;BMP180;10528;52.124;5.196;2022-12-16T10:28:18;101451.00;;;6.50
20736;BMP180;10528;52.124;5.196;2022-12-16T10:31:15;101458.00;;;6.60
20736;BMP180;10528;52.124;5.196;2022-12-16T10:34:19;101466.00;;;6.80
20736;BMP180;10528;52.124;5.196;2022-12-16T10:37:05;101466.00;;;6.80
20736;BMP180;10528;52.124;5.196;2022-12-16T10:39:57;101460.00;;;6.90
20736;BMP180;10528;52.124;5.196;2022-12-16T10:43:00;101467.00;;;7.00
20736;BMP180;10528;52.124;5.196;2022-12-16T10:45:52;101460.00;;;7.10
20736;BMP180;10528;52.124;5.196;2022-12-16T10:48:39;101470.00;;;7.20
20736;BMP180;10528;52.124;5.196;2022-12-16T10:51:27;101454.00;;;7.30
20736;BMP180;10528;52.124;5.196;2022-12-16T10:57:54;101465.00;;;7.40
20736;BMP180;10528;52.124;5.196;2022-12-16T11:00:45;101468.00;;;7.50
20736;BMP180;10528;52.124;5.196;2022-12-16T11:03:36;101470.00;;;7.60
20736;BMP180;10528;52.124;5.196;2022-12-16T11:06:37;101451.00;;;7.60
20736;BMP180;10528;52.124;5.196;2022-12-16T11:09:30;101458.00;;;7.70
20736;BMP180;10528;52.124;5.196;2022-12-16T11:12:28;101472.00;;;7.80
20736;BMP180;10528;52.124;5.196;2022-12-16T11:15:28;101472.00;;;7.90
20736;BMP180;10528;52.124;5.196;2022-12-16T11:18:17;101478.00;;;8.00
20736;BMP180;10528;52.124;5.196;2022-12-16T11:21:23;101471.00;;;8.00
20736;BMP180;10528;52.124;5.196;2022-12-16T11:24:13;101479.00;;;8.10
20736;BMP180;10528;52.124;5.196;2022-12-16T11:27:02;101481.00;;;8.10
20736;BMP180;10528;52.124;5.196;2022-12-16T11:29:59;101481.00;;;8.20
20736;BMP180;10528;52.124;5.196;2022-12-16T11:32:53;101479.00;;;8.20
20736;BMP180;10528;52.124;5.196;2022-12-16T11:36:05;101490.00;;;8.20
20736;BMP180;10528;52.124;5.196;2022-12-16T11:38:52;101492.00;;;8.30
20736;BMP180;10528;52.124;5.196;2022-12-16T11:41:41;101494.00;;;8.30
20736;BMP180;10528;52.124;5.196;2022-12-16T11:44:54;101495.00;;;8.30
20736;BMP180;10528;52.124;5.196;2022-12-16T11:47:55;101489.00;;;8.30
20736;BMP180;10528;52.124;5.196;2022-12-16T11:50:56;101493.00;;;8.40
20736;BMP180;10528;52.124;5.196;2022-12-16T11:53:47;101486.00;;;8.40
20736;BMP180;10528;52.124;5.196;2022-12-16T11:56:56;101486.00;;;8.40
20736;BMP180;10528;52.124;5.196;2022-12-16T11:59:49;101487.00;;;8.40
20736;BMP180;10528;52.124;5.196;2022-12-16T12:09:20;101492.00;;;8.50
20736;BMP180;10528;52.124;5.196;2022-12-16T12:12:41;101502.00;;;8.50
20736;BMP180;10528;52.124;5.196;2022-12-16T12:16:01;101493.00;;;8.60
20736;BMP180;10528;52.124;5.196;2022-12-16T12:19:25;101509.00;;;8.70
20736;BMP180;10528;52.124;5.196;2022-12-16T12:26:05;101508.00;;;8.80
20736;BMP180;10528;52.124;5.196;2022-12-16T12:29:18;101515.00;;;8.80
20736;BMP180;10528;52.124;5.196;2022-12-16T12:35:40;101506.00;;;8.90
20736;BMP180;10528;52.124;5.196;2022-12-16T12:38:37;101506.00;;;8.90
20736;BMP180;10528;52.124;5.196;2022-12-16T12:41:57;101503.00;;;8.90
20736;BMP180;10528;52.124;5.196;2022-12-16T12:47:58;101518.00;;;9.00
20736;BMP180;10528;52.124;5.196;2022-12-16T12:54:47;101517.00;;;9.20
20736;BMP180;10528;52.124;5.196;2022-12-16T12:57:14;101516.00;;;9.20
20736;BMP180;10528;52.124;5.196;2022-12-16T13:00:16;101513.00;;;9.20
20736;BMP180;10528;52.124;5.196;2022-12-16T13:03:29;101523.00;;;9.20
20736;BMP180;10528;52.124;5.196;2022-12-16T13:06:18;101523.00;;;9.20
20736;BMP180;10528;52.124;5.196;2022-12-16T13:09:27;101529.00;;;9.20
20736;BMP180;10528;52.124;5.196;2022-12-16T13:20:52;101532.00;;;9.40
20736;BMP180;10528;52.124;5.196;2022-12-16T13:23:45;101533.00;;;9.40
20736;BMP180;10528;52.124;5.196;2022-12-16T13:26:34;101527.00;;;9.40
20736;BMP180;10528;52.124;5.196;2022-12-16T13:29:30;101529.00;;;9.40
20736;BMP180;10528;52.124;5.196;2022-12-16T13:32:22;101532.00;;;9.40
20736;BMP180;10528;52.124;5.196;2022-12-16T13:38:05;101532.00;;;9.40
20736;BMP180;10528;52.124;5.196;2022-12-16T13:41:04;101536.00;;;9.40
20736;BMP180;10528;52.124;5.196;2022-12-16T13:43:59;101541.00;;;9.40
20736;BMP180;10528;52.124;5.196;2022-12-16T13:46:54;101543.00;;;9.40
20736;BMP180;10528;52.124;5.196;2022-12-16T13:49:45;101549.00;;;9.40
20736;BMP180;10528;52.124;5.196;2022-12-16T13:53:06;101549.00;;;9.30
20736;BMP180;10528;52.124;5.196;2022-12-16T13:56:00;101550.00;;;9.30
20736;BMP180;10528;52.124;5.196;2022-12-16T13:58:52;101556.00;;;9.30
20736;BMP180;10528;52.124;5.196;2022-12-16T14:01:52;101567.00;;;9.30
20736;BMP180;10528;52.124;5.196;2022-12-16T14:04:52;101565.00;;;9.30
20736;BMP180;10528;52.124;5.196;2022-12-16T14:07:39;101564.00;;;9.30
20736;BMP180;10528;52.124;5.196;2022-12-16T14:10:35;101562.00;;;9.20
20736;BMP180;10528;52.124;5.196;2022-12-16T14:13:45;101575.00;;;9.20
20736;BMP180;10528;52.124;5.196;2022-12-16T14:26:24;101605.00;;;9.00
20736;BMP180;10528;52.124;5.196;2022-12-16T14:29:20;101607.00;;;9.00
20736;BMP180;10528;52.124;5.196;2022-12-16T14:32:29;101601.00;;;9.00
20736;BMP180;10528;52.124;5.196;2022-12-16T14:35:21;101607.00;;;9.00
20736;BMP180;10528;52.124;5.196;2022-12-16T14:38:28;101606.00;;;9.00
20736;BMP180;10528;52.124;5.196;2022-12-16T14:41:20;101608.00;;;9.00
20736;BMP180;10528;52.124;5.196;2022-12-16T14:44:23;101622.00;;;8.90
20736;BMP180;10528;52.124;5.196;2022-12-16T14:47:17;101625.00;;;8.90
20736;BMP180;10528;52.124;5.196;2022-12-16T14:50:28;101625.00;;;8.90
20736;BMP180;10528;52.124;5.196;2022-12-16T14:53:23;101622.00;;;8.90
20736;BMP180;10528;52.124;5.196;2022-12-16T14:56:16;101640.00;;;8.90
20736;BMP180;10528;52.124;5.196;2022-12-16T15:02:27;101643.00;;;8.80
20736;BMP180;10528;52.124;5.196;2022-12-16T15:05:19;101652.00;;;8.80
20736;BMP180;10528;52.124;5.196;2022-12-16T15:08:11;101654.00;;;8.70
20736;BMP180;10528;52.124;5.196;2022-12-16T15:10:59;101648.00;;;8.70
20736;BMP180;10528;52.124;5.196;2022-12-16T15:13:49;101660.00;;;8.70
20736;BMP180;10528;52.124;5.196;2022-12-16T15:16:38;101666.00;;;8.60
20736;BMP180;10528;52.124;5.196;2022-12-16T15:19:24;101667.00;;;8.60
20736;BMP180;10528;52.124;5.196;2022-12-16T15:22:16;101672.00;;;8.60
20736;BMP180;10528;52.124;5.196;2022-12-16T15:25:03;101668.00;;;8.50
20736;BMP180;10528;52.124;5.196;2022-12-16T15:27:56;101682.00;;;8.50
20736;BMP180;10528;52.124;5.196;2022-12-16T15:30:45;101675.00;;;8.50
20736;BMP180;10528;52.124;5.196;2022-12-16T15:33:37;101680.00;;;8.40
20736;BMP180;10528;52.124;5.196;2022-12-16T15:39:40;101695.00;;;8.30
20736;BMP180;10528;52.124;5.196;2022-12-16T15:42:30;101699.00;;;8.20
20736;BMP180;10528;52.124;5.196;2022-12-16T15:45:28;101701.00;;;8.20
20736;BMP180;10528;52.124;5.196;2022-12-16T15:48:27;101702.00;;;8.10
20736;BMP180;10528;52.124;5.196;2022-12-16T15:51:38;101706.00;;;8.10
20736;BMP180;10528;52.124;5.196;2022-12-16T15:54:26;101712.00;;;8.10
20736;BMP180;10528;52.124;5.196;2022-12-16T15:57:33;101702.00;;;8.00
20736;BMP180;10528;52.124;5.196;2022-12-16T16:00:30;101712.00;;;8.00
20736;BMP180;10528;52.124;5.196;2022-12-16T16:06:16;101716.00;;;7.90
20736;BMP180;10528;52.124;5.196;2022-12-16T16:09:25;101712.00;;;7.80
20736;BMP180;10528;52.124;5.196;2022-12-16T16:12:14;101719.00;;;7.70
20736;BMP180;10528;52.124;5.196;2022-12-16T16:15:02;101718.00;;;7.60
20736;BMP180;10528;52.124;5.196;2022-12-16T16:17:55;101728.00;;;7.60
20736;BMP180;10528;52.124;5.196;2022-12-16T16:20:42;101737.00;;;7.50
20736;BMP180;10528;52.124;5.196;2022-12-16T16:23:28;101737.00;;;7.50
20736;BMP180;10528;52.124;5.196;2022-12-16T16:26:18;101737.00;;;7.40
20736;BMP180;10528;52.124;5.196;2022-12-16T16:29:05;101735.00;;;7.40
20736;BMP180;10528;52.124;5.196;2022-12-16T16:31:54;101746.00;;;7.30
20736;BMP180;10528;52.124;5.196;2022-12-16T16:34:39;101752.00;;;7.30
20736;BMP180;10528;52.124;5.196;2022-12-16T16:37:25;101751.00;;;7.20
20736;BMP180;10528;52.124;5.196;2022-12-16T16:40:28;101762.00;;;7.20
20736;BMP180;10528;52.124;5.196;2022-12-16T16:43:16;101760.00;;;7.10
20736;BMP180;10528;52.124;5.196;2022-12-16T16:49:31;101764.00;;;7.00
20736;BMP180;10528;52.124;5.196;2022-12-16T16:52:20;101765.00;;;7.00
20736;BMP180;10528;52.124;5.196;2022-12-16T16:55:13;101762.00;;;7.00
20736;BMP180;10528;52.124;5.196;2022-12-16T16:57:59;101765.00;;;6.90
20736;BMP180;10528;52.124;5.196;2022-12-16T17:00:45;101771.00;;;6.90
20736;BMP180;10528;52.124;5.196;2022-12-16T17:03:31;101771.00;;;6.90
20736;BMP180;10528;52.124;5.196;2022-12-16T17:06:17;101773.00;;;6.90
20736;BMP180;10528;52.124;5.196;2022-12-16T17:09:02;101783.00;;;6.80
20736;BMP180;10528;52.124;5.196;2022-12-16T17:11:48;101783.00;;;6.80
20736;BMP180;10528;52.124;5.196;2022-12-16T17:14:33;101792.00;;;6.80
20736;BMP180;10528;52.124;5.196;2022-12-16T17:17:19;101779.00;;;6.70
20736;BMP180;10528;52.124;5.196;2022-12-16T17:20:05;101790.00;;;6.70
20736;BMP180;10528;52.124;5.196;2022-12-16T17:22:51;101783.00;;;6.60
20736;BMP180;10528;52.124;5.196;2022-12-16T17:25:36;101790.00;;;6.60
20736;BMP180;10528;52.124;5.196;2022-12-16T17:28:22;101798.00;;;6.60
20736;BMP180;10528;52.124;5.196;2022-12-16T17:31:09;101801.00;;;6.50
20736;BMP180;10528;52.124;5.196;2022-12-16T17:33:55;101789.00;;;6.50
20736;BMP180;10528;52.124;5.196;2022-12-16T17:36:40;101803.00;;;6.50
20736;BMP180;10528;52.124;5.196;2022-12-16T17:39:26;101799.00;;;6.50
20736;BMP180;10528;52.124;5.196;2022-12-16T17:42:19;101814.00;;;6.50